ADDS METAR Data INFO
IDs: Format: Raw Decoded Include TAF

Data at: 1319 UTC 19 Jul 2018

KHAI 191315Z AUTO 16006KT 10SM CLR 21/14 A3007 RMK AO2 T02100139
KHAI 191255Z AUTO 16003KT 10SM CLR 20/15 A3007 RMK AO2 T02000145
KHAI 191235Z AUTO 16003KT 10SM CLR 20/15 A3007 RMK AO2 T01950145
KHAI 191215Z AUTO 00000KT 10SM CLR 18/16 A3007 RMK AO2 T01820158
KHAI 191155Z AUTO 00000KT 10SM CLR 17/15 A3007 RMK AO2 T01710153 10171 20142
KHAI 191135Z AUTO 00000KT 10SM CLR 16/15 A3006 RMK AO2 T01640150
KHAI 191115Z AUTO 00000KT 10SM CLR 15/14 A3006 RMK AO2 T01510140
KHAI 191055Z AUTO 00000KT 10SM CLR 15/13 A3006 RMK AO2 T01450133
KHAI 191035Z AUTO 00000KT 10SM CLR 15/14 A3006 RMK AO2 T01450135
KHAI 191015Z AUTO 00000KT 10SM CLR 15/13 A3006 RMK AO2 T01460134
KHAI 190955Z AUTO 00000KT 10SM CLR 15/13 A3006 RMK AO2 T01460133
KHAI 190935Z AUTO 00000KT 10SM CLR 15/13 A3005 RMK AO2 T01450131
KHAI 190915Z AUTO 00000KT 10SM CLR 15/14 A3006 RMK AO2 T01460136
KHAI 190855Z AUTO 00000KT 10SM CLR 15/14 A3006 RMK AO2 T01510141
KHAI 190835Z AUTO 00000KT 10SM CLR 15/14 A3006 RMK AO2 T01490141
KHAI 190815Z AUTO 00000KT 10SM CLR 15/14 A3006 RMK AO2 T01460136
KHAI 190755Z AUTO 00000KT 10SM CLR 15/14 A3006 RMK AO2 T01490136
KHAI 190735Z AUTO 00000KT 10SM SCT060 15/14 A3006 RMK AO2 T01510138
KHAI 190715Z AUTO 00000KT 10SM SCT060 15/14 A3006 RMK AO2 T01540140
KHAI 190655Z AUTO 00000KT 10SM SCT060 15/14 A3006 RMK AO2 T01520139
KHAI 190635Z AUTO 00000KT 10SM SCT060 16/14 A3007 RMK AO2 T01550138
KHAI 190615Z AUTO 00000KT 10SM CLR 16/14 A3006 RMK AO2 T01560137
KHAI 190555Z AUTO 00000KT 10SM CLR 16/14 A3007 RMK AO2 T01610138 10250 20155 402660128
KHAI 190535Z AUTO 00000KT 10SM CLR 16/14 A3007 RMK AO2 T01610137
KHAI 190515Z AUTO 00000KT 10SM CLR 16/14 A3007 RMK AO2 T01640138
KHAI 190455Z AUTO 00000KT 10SM CLR 16/14 A3006 RMK AO2 T01630135
KHAI 190435Z AUTO 00000KT 10SM CLR 16/13 A3006 RMK AO2 T01640133
KHAI 190415Z AUTO 00000KT 10SM CLR 18/14 A3007 RMK AO2 T01780138
KHAI 190355Z AUTO 00000KT 10SM CLR 17/14 A3007 RMK AO2 T01720140
KHAI 190335Z AUTO 00000KT 10SM CLR 18/14 A3007 RMK AO2 T01830135
KHAI 190315Z AUTO 00000KT 10SM CLR 19/14 A3007 RMK AO2 T01870137
KHAI 190255Z AUTO 00000KT 10SM CLR 19/14 A3007 RMK AO2 T01940135
KHAI 190235Z AUTO 00000KT 10SM CLR 20/13 A3007 RMK AO2 T01970133
KHAI 190215Z AUTO 36003KT 10SM CLR 20/13 A3006 RMK AO2 T02020133
KHAI 190155Z AUTO 35003KT 10SM CLR 21/13 A3006 RMK AO2 T02060132
KHAI 190135Z AUTO 36003KT 10SM CLR 21/13 A3006 RMK AO2 T02130133
KHAI 190115Z AUTO 34003KT 10SM CLR 22/13 A3005 RMK AO2 T02180132
KHAI 190055Z AUTO 34004KT 10SM CLR 23/13 A3005 RMK AO2 T02300131
KHAI 190035Z AUTO 00000KT 10SM CLR 24/12 A3004 RMK AO2 T02380124
KHAI 190015Z AUTO 01003KT 10SM CLR 24/13 A3004 RMK AO2 T02440126
KHAI 182355Z AUTO 01003KT 10SM CLR 25/12 A3005 RMK AO2 T02510115 10266 20246
KHAI 182335Z AUTO 35003KT 10SM CLR 26/11 A3005 RMK AO2 T02570107
KHAI 182315Z AUTO 36003KT 10SM CLR 26/11 A3005 RMK AO2 T02570109
KHAI 182255Z AUTO 35003KT 10SM CLR 26/10 A3005 RMK AO2 T02600101
KHAI 182235Z AUTO 09003KT 10SM CLR 26/10 A3005 RMK AO2 T02610096
KHAI 182215Z AUTO 00000KT 10SM CLR 26/08 A3005 RMK AO2 T02550081
KHAI 182155Z AUTO 00000KT 10SM CLR 26/08 A3006 RMK AO2 T02580084
KHAI 182135Z AUTO 00000KT 10SM SCT060 26/11 A3006 RMK AO2 T02590114
KHAI 182115Z AUTO 00000KT 10SM SCT060 26/10 A3007 RMK AO2 T02580102
KHAI 182055Z AUTO 00000KT 10SM CLR 27/12 A3007 RMK AO2 T02660119
KHAI 182035Z AUTO 20004KT 10SM CLR 26/10 A3007 RMK AO2 T02620103
KHAI 182015Z AUTO 11004KT 10SM CLR 26/10 A3008 RMK AO2 T02600096
KHAI 181955Z AUTO 15004KT 10SM CLR 26/10 A3009 RMK AO2 T02630098
KHAI 181935Z AUTO 14005KT 10SM CLR 26/09 A3009 RMK AO2 T02590089
KHAI 181915Z AUTO 00000KT 10SM SCT060 26/09 A3010 RMK AO2 T02560093
KHAI 181855Z AUTO 16005KT 10SM SCT060 26/09 A3010 RMK AO2 T02570087
KHAI 181835Z AUTO 22004KT 10SM CLR 26/09 A3011 RMK AO2 T02580092
KHAI 181815Z AUTO 17003KT 10SM CLR 25/09 A3011 RMK AO2 T02520092
KHAI 181755Z AUTO 14003KT 10SM SCT046 25/10 A3011 RMK AO2 T02500102 10251 20157
KHAI 181735Z AUTO 35003KT 10SM SCT044 23/11 A3011 RMK AO2 T02340107
KHAI 181715Z AUTO 35003KT 10SM BKN044 24/12 A3012 RMK AO2 T02370122
KHAI 181655Z AUTO 00000KT 10SM CLR 23/11 A3012 RMK AO2 T02310111
KHAI 181635Z AUTO 07004KT 10SM SCT038 24/12 A3012 RMK AO2 T02390119
KHAI 181615Z AUTO 00000KT 10SM SCT038 24/13 A3013 RMK AO2 T02370127
KHAI 181555Z AUTO 00000KT 10SM CLR 23/13 A3013 RMK AO2 T02310130
KHAI 181535Z AUTO 01004KT 10SM CLR 23/13 A3013 RMK AO2 T02260129
KHAI 181515Z AUTO 00000KT 10SM CLR 23/13 A3013 RMK AO2 T02250132
KHAI 181455Z AUTO 36003KT 10SM CLR 22/13 A3013 RMK AO2 T02160129
KHAI 181435Z AUTO 03003KT 10SM CLR 21/13 A3013 RMK AO2 T02110129
KHAI 181415Z AUTO 00000KT 10SM CLR 21/14 A3014 RMK AO2 T02060135
KHAI 181355Z AUTO 05003KT 10SM CLR 20/14 A3014 RMK AO2 T01970139
KHAI 181335Z AUTO 00000KT 10SM CLR 19/14 A3014 RMK AO2 T01900138
KHAI 181315Z AUTO 00000KT 10SM CLR 18/14 A3014 RMK AO2 T01810135
KHAI 181255Z AUTO 01003KT 10SM CLR 18/13 A3014 RMK AO2 T01750132
KHAI 181235Z AUTO 00000KT 10SM CLR 17/13 A3014 RMK AO2 T01670129
KHAI 181215Z AUTO 05003KT 10SM CLR 16/13 A3014 RMK AO2 T01630130
KHAI 181155Z AUTO 00000KT 10SM CLR 16/13 A3014 RMK AO2 T01560127 10156 20128
KHAI 181135Z AUTO 00000KT 10SM CLR 15/12 A3014 RMK AO2 T01520123
KHAI 181115Z AUTO 00000KT 10SM CLR 15/12 A3014 RMK AO2 T01460121
KHAI 181055Z AUTO 00000KT 10SM CLR 14/12 A3013 RMK AO2 T01420120
KHAI 181035Z AUTO 00000KT 10SM CLR 13/11 A3012 RMK AO2 T01300107
KHAI 181015Z AUTO 00000KT 10SM CLR 14/12 A3012 RMK AO2 T01430118
KHAI 180955Z AUTO 00000KT 10SM CLR 14/12 A3012 RMK AO2 T01440118
KHAI 180935Z AUTO 00000KT 10SM CLR 15/12 A3012 RMK AO2 T01450119
KHAI 180915Z AUTO 00000KT 10SM CLR 14/12 A3012 RMK AO2 T01410119
KHAI 180855Z AUTO 00000KT 10SM CLR 15/12 A3011 RMK AO2 T01450123
KHAI 180835Z AUTO 00000KT 10SM CLR 14/12 A3011 RMK AO2 T01420123
KHAI 180815Z AUTO 34003KT 10SM CLR 15/12 A3011 RMK AO2 T01450123
KHAI 180755Z AUTO 00000KT 10SM CLR 15/13 A3011 RMK AO2 T01450125
KHAI 180735Z AUTO 00000KT 10SM CLR 15/13 A3012 RMK AO2 T01450125
KHAI 180715Z AUTO 33003KT 10SM CLR 15/12 A3011 RMK AO2 T01480121
KHAI 180655Z AUTO 00000KT 10SM CLR 14/12 A3011 RMK AO2 T01430118
KHAI 180635Z AUTO 00000KT 10SM CLR 15/12 A3011 RMK AO2 T01450120
KHAI 180615Z AUTO 00000KT 10SM CLR 14/12 A3010 RMK AO2 T01400115
KHAI 180555Z AUTO 00000KT 10SM CLR 15/12 A3010 RMK AO2 T01470121 10230 20145 402730145
KHAI 180535Z AUTO 00000KT 10SM CLR 15/12 A3010 RMK AO2 T01500119
KHAI 180515Z AUTO 00000KT 10SM CLR 15/12 A3010 RMK AO2 T01530122
KHAI 180455Z AUTO 00000KT 10SM CLR 15/12 A3010 RMK AO2 T01510116
KHAI 180435Z AUTO 00000KT 10SM CLR 16/12 A3010 RMK AO2 T01550119
KHAI 180415Z AUTO 00000KT 10SM CLR 17/12 A3009 RMK AO2 T01680117
KHAI 180355Z AUTO 00000KT 10SM CLR 17/11 A3009 RMK AO2 T01700114
KHAI 180335Z AUTO 00000KT 10SM CLR 16/11 A3009 RMK AO2 T01610113
KHAI 180315Z AUTO 00000KT 10SM CLR 18/11 A3008 RMK AO2 T01770112
KHAI 180255Z AUTO 32003KT 10SM CLR 18/11 A3008 RMK AO2 T01760111
KHAI 180235Z AUTO 31004KT 10SM CLR 18/11 A3007 RMK AO2 T01790112
KHAI 180215Z AUTO 32003KT 10SM CLR 18/12 A3007 RMK AO2 T01750117
KHAI 180155Z AUTO 30003KT 10SM CLR 18/12 A3007 RMK AO2 T01800115
KHAI 180135Z AUTO 30004KT 10SM CLR 19/11 A3007 RMK AO2 T01890114